sensor_id;sensor_type;location;lat;lon;timestamp;P1;durP1;ratioP1;P2;durP2;ratioP2
1949;SDS011;975;48.760;9.152;2023-12-07T00:01:21;3.05;;;2.10;;
1949;SDS011;975;48.760;9.152;2023-12-07T00:04:09;9.15;;;3.30;;
1949;SDS011;975;48.760;9.152;2023-12-07T00:06:56;8.85;;;3.33;;
1949;SDS011;975;48.760;9.152;2023-12-07T00:09:44;7.95;;;3.53;;
1949;SDS011;975;48.760;9.152;2023-12-07T00:12:32;8.35;;;3.38;;
1949;SDS011;975;48.760;9.152;2023-12-07T00:15:21;6.00;;;3.17;;
1949;SDS011;975;48.760;9.152;2023-12-07T00:18:09;7.78;;;3.42;;
1949;SDS011;975;48.760;9.152;2023-12-07T00:20:57;6.90;;;3.53;;
1949;SDS011;975;48.760;9.152;2023-12-07T00:23:45;8.52;;;3.85;;
1949;SDS011;975;48.760;9.152;2023-12-07T00:26:33;7.82;;;3.88;;
1949;SDS011;975;48.760;9.152;2023-12-07T00:29:20;7.03;;;2.90;;
1949;SDS011;975;48.760;9.152;2023-12-07T00:32:10;8.50;;;3.53;;
1949;SDS011;975;48.760;9.152;2023-12-07T00:34:57;7.13;;;3.13;;
1949;SDS011;975;48.760;9.152;2023-12-07T00:37:45;7.38;;;3.20;;
1949;SDS011;975;48.760;9.152;2023-12-07T00:40:33;5.78;;;2.65;;
1949;SDS011;975;48.760;9.152;2023-12-07T00:43:22;7.30;;;3.38;;
1949;SDS011;975;48.760;9.152;2023-12-07T00:46:10;8.80;;;3.30;;
1949;SDS011;975;48.760;9.152;2023-12-07T00:48:59;7.15;;;3.63;;
1949;SDS011;975;48.760;9.152;2023-12-07T00:51:47;7.20;;;3.30;;
1949;SDS011;975;48.760;9.152;2023-12-07T00:54:35;8.73;;;2.70;;
1949;SDS011;975;48.760;9.152;2023-12-07T00:57:23;7.65;;;3.05;;
1949;SDS011;975;48.760;9.152;2023-12-07T01:00:11;6.32;;;3.30;;
1949;SDS011;975;48.760;9.152;2023-12-07T01:02:59;6.28;;;3.00;;
1949;SDS011;975;48.760;9.152;2023-12-07T01:05:48;7.13;;;3.13;;
1949;SDS011;975;48.760;9.152;2023-12-07T01:08:36;7.20;;;3.03;;
1949;SDS011;975;48.760;9.152;2023-12-07T01:11:24;8.02;;;3.45;;
1949;SDS011;975;48.760;9.152;2023-12-07T01:14:12;6.43;;;3.03;;
1949;SDS011;975;48.760;9.152;2023-12-07T01:17:00;6.43;;;2.88;;
1949;SDS011;975;48.760;9.152;2023-12-07T01:19:48;7.13;;;3.45;;
1949;SDS011;975;48.760;9.152;2023-12-07T01:22:37;8.93;;;3.53;;
1949;SDS011;975;48.760;9.152;2023-12-07T01:25:24;8.27;;;3.13;;
1949;SDS011;975;48.760;9.152;2023-12-07T01:28:12;9.35;;;3.15;;
1949;SDS011;975;48.760;9.152;2023-12-07T01:31:00;5.00;;;2.47;;
1949;SDS011;975;48.760;9.152;2023-12-07T01:33:48;8.95;;;2.67;;
1949;SDS011;975;48.760;9.152;2023-12-07T01:36:39;5.72;;;2.92;;
1949;SDS011;975;48.760;9.152;2023-12-07T01:39:31;7.70;;;3.08;;
1949;SDS011;975;48.760;9.152;2023-12-07T01:42:22;5.53;;;2.60;;
1949;SDS011;975;48.760;9.152;2023-12-07T01:45:09;4.18;;;2.22;;
1949;SDS011;975;48.760;9.152;2023-12-07T01:47:57;6.32;;;3.10;;
1949;SDS011;975;48.760;9.152;2023-12-07T01:50:45;4.68;;;2.53;;
1949;SDS011;975;48.760;9.152;2023-12-07T01:53:33;7.10;;;2.80;;
1949;SDS011;975;48.760;9.152;2023-12-07T01:56:24;5.85;;;2.72;;
1949;SDS011;975;48.760;9.152;2023-12-07T01:59:12;6.40;;;3.13;;
1949;SDS011;975;48.760;9.152;2023-12-07T02:02:00;4.90;;;2.85;;
1949;SDS011;975;48.760;9.152;2023-12-07T02:04:48;5.53;;;2.60;;
1949;SDS011;975;48.760;9.152;2023-12-07T02:07:36;7.55;;;2.70;;
1949;SDS011;975;48.760;9.152;2023-12-07T02:10:24;6.32;;;2.22;;
1949;SDS011;975;48.760;9.152;2023-12-07T02:13:19;5.25;;;2.25;;
1949;SDS011;975;48.760;9.152;2023-12-07T02:16:10;5.95;;;2.83;;
1949;SDS011;975;48.760;9.152;2023-12-07T02:19:00;5.68;;;2.65;;
1949;SDS011;975;48.760;9.152;2023-12-07T02:21:51;6.22;;;3.03;;
1949;SDS011;975;48.760;9.152;2023-12-07T02:24:41;4.45;;;2.78;;
1949;SDS011;975;48.760;9.152;2023-12-07T02:27:36;6.50;;;2.72;;
1949;SDS011;975;48.760;9.152;2023-12-07T02:30:24;4.50;;;2.75;;
1949;SDS011;975;48.760;9.152;2023-12-07T02:33:12;3.90;;;2.17;;
1949;SDS011;975;48.760;9.152;2023-12-07T02:36:01;7.47;;;3.00;;
1949;SDS011;975;48.760;9.152;2023-12-07T02:38:49;5.25;;;2.50;;
1949;SDS011;975;48.760;9.152;2023-12-07T02:41:37;4.93;;;2.58;;
1949;SDS011;975;48.760;9.152;2023-12-07T02:44:26;8.45;;;2.70;;
1949;SDS011;975;48.760;9.152;2023-12-07T02:47:14;7.72;;;2.63;;
1949;SDS011;975;48.760;9.152;2023-12-07T02:50:06;5.88;;;2.75;;
1949;SDS011;975;48.760;9.152;2023-12-07T02:52:54;6.40;;;2.80;;
1949;SDS011;975;48.760;9.152;2023-12-07T02:55:42;3.88;;;2.17;;
1949;SDS011;975;48.760;9.152;2023-12-07T02:58:30;4.60;;;2.67;;
1949;SDS011;975;48.760;9.152;2023-12-07T03:01:19;4.13;;;2.28;;
1949;SDS011;975;48.760;9.152;2023-12-07T03:04:07;5.95;;;3.00;;
1949;SDS011;975;48.760;9.152;2023-12-07T03:06:55;5.28;;;2.30;;
1949;SDS011;975;48.760;9.152;2023-12-07T03:09:42;5.55;;;2.30;;
1949;SDS011;975;48.760;9.152;2023-12-07T03:12:30;4.50;;;2.35;;
1949;SDS011;975;48.760;9.152;2023-12-07T03:18:10;6.03;;;2.45;;
1949;SDS011;975;48.760;9.152;2023-12-07T03:20:58;6.38;;;2.80;;
1949;SDS011;975;48.760;9.152;2023-12-07T03:23:46;6.70;;;2.65;;
1949;SDS011;975;48.760;9.152;2023-12-07T03:26:35;4.03;;;2.50;;
1949;SDS011;975;48.760;9.152;2023-12-07T03:29:23;6.47;;;2.75;;
1949;SDS011;975;48.760;9.152;2023-12-07T03:32:11;5.68;;;2.58;;
1949;SDS011;975;48.760;9.152;2023-12-07T03:35:00;7.32;;;3.25;;
1949;SDS011;975;48.760;9.152;2023-12-07T03:37:48;4.65;;;2.65;;
1949;SDS011;975;48.760;9.152;2023-12-07T03:40:35;6.05;;;2.53;;
1949;SDS011;975;48.760;9.152;2023-12-07T03:43:23;6.00;;;2.90;;
1949;SDS011;975;48.760;9.152;2023-12-07T03:46:11;5.20;;;2.50;;
1949;SDS011;975;48.760;9.152;2023-12-07T03:48:59;5.57;;;3.05;;
1949;SDS011;975;48.760;9.152;2023-12-07T03:51:51;6.55;;;2.25;;
1949;SDS011;975;48.760;9.152;2023-12-07T03:54:39;7.28;;;3.40;;
1949;SDS011;975;48.760;9.152;2023-12-07T03:57:27;5.70;;;2.38;;
1949;SDS011;975;48.760;9.152;2023-12-07T04:00:15;5.80;;;3.00;;
1949;SDS011;975;48.760;9.152;2023-12-07T04:03:03;6.50;;;2.70;;
1949;SDS011;975;48.760;9.152;2023-12-07T04:05:51;5.00;;;2.65;;
1949;SDS011;975;48.760;9.152;2023-12-07T04:08:41;7.35;;;2.85;;
1949;SDS011;975;48.760;9.152;2023-12-07T04:11:29;7.13;;;2.78;;
1949;SDS011;975;48.760;9.152;2023-12-07T04:14:16;6.32;;;2.80;;
1949;SDS011;975;48.760;9.152;2023-12-07T04:17:04;5.63;;;2.78;;
1949;SDS011;975;48.760;9.152;2023-12-07T04:19:53;8.23;;;3.10;;
1949;SDS011;975;48.760;9.152;2023-12-07T04:22:40;6.80;;;2.75;;
1949;SDS011;975;48.760;9.152;2023-12-07T04:25:31;7.68;;;3.33;;
1949;SDS011;975;48.760;9.152;2023-12-07T04:28:19;8.80;;;3.13;;
1949;SDS011;975;48.760;9.152;2023-12-07T04:31:07;7.75;;;3.40;;
1949;SDS011;975;48.760;9.152;2023-12-07T04:33:54;9.32;;;3.58;;
1949;SDS011;975;48.760;9.152;2023-12-07T04:36:42;9.43;;;3.83;;
1949;SDS011;975;48.760;9.152;2023-12-07T04:39:30;5.47;;;2.88;;
1949;SDS011;975;48.760;9.152;2023-12-07T04:42:21;7.53;;;3.10;;
1949;SDS011;975;48.760;9.152;2023-12-07T04:45:12;7.95;;;3.67;;
1949;SDS011;975;48.760;9.152;2023-12-07T04:50:48;6.10;;;2.83;;
1949;SDS011;975;48.760;9.152;2023-12-07T04:53:36;8.52;;;3.45;;
1949;SDS011;975;48.760;9.152;2023-12-07T04:56:24;9.07;;;3.75;;
1949;SDS011;975;48.760;9.152;2023-12-07T04:59:16;10.10;;;3.63;;
1949;SDS011;975;48.760;9.152;2023-12-07T05:02:04;7.32;;;3.63;;
1949;SDS011;975;48.760;9.152;2023-12-07T05:04:52;8.25;;;3.28;;
1949;SDS011;975;48.760;9.152;2023-12-07T05:07:40;7.50;;;3.30;;
1949;SDS011;975;48.760;9.152;2023-12-07T05:10:27;9.25;;;3.35;;
1949;SDS011;975;48.760;9.152;2023-12-07T05:13:15;8.88;;;3.75;;
1949;SDS011;975;48.760;9.152;2023-12-07T05:16:05;7.68;;;3.38;;
1949;SDS011;975;48.760;9.152;2023-12-07T05:18:53;10.40;;;3.78;;
1949;SDS011;975;48.760;9.152;2023-12-07T05:21:41;7.10;;;2.83;;
1949;SDS011;975;48.760;9.152;2023-12-07T05:24:29;7.68;;;3.33;;
1949;SDS011;975;48.760;9.152;2023-12-07T05:30:08;8.15;;;3.50;;
1949;SDS011;975;48.760;9.152;2023-12-07T05:32:57;5.55;;;3.10;;
1949;SDS011;975;48.760;9.152;2023-12-07T05:35:45;8.98;;;3.50;;
1949;SDS011;975;48.760;9.152;2023-12-07T05:38:33;9.40;;;3.20;;
1949;SDS011;975;48.760;9.152;2023-12-07T05:41:21;9.55;;;3.67;;
1949;SDS011;975;48.760;9.152;2023-12-07T05:44:11;7.05;;;3.58;;
1949;SDS011;975;48.760;9.152;2023-12-07T05:47:07;9.55;;;3.15;;
1949;SDS011;975;48.760;9.152;2023-12-07T05:49:56;6.60;;;2.90;;
1949;SDS011;975;48.760;9.152;2023-12-07T05:52:45;7.90;;;3.25;;
1949;SDS011;975;48.760;9.152;2023-12-07T05:55:33;6.40;;;3.20;;
1949;SDS011;975;48.760;9.152;2023-12-07T05:58:21;8.23;;;3.42;;
1949;SDS011;975;48.760;9.152;2023-12-07T06:01:09;6.05;;;3.25;;
1949;SDS011;975;48.760;9.152;2023-12-07T06:03:57;8.82;;;3.78;;
1949;SDS011;975;48.760;9.152;2023-12-07T06:06:46;8.63;;;3.60;;
1949;SDS011;975;48.760;9.152;2023-12-07T06:09:34;12.57;;;4.05;;
1949;SDS011;975;48.760;9.152;2023-12-07T06:12:22;10.15;;;3.28;;
1949;SDS011;975;48.760;9.152;2023-12-07T06:15:10;8.60;;;3.75;;
1949;SDS011;975;48.760;9.152;2023-12-07T06:17:58;8.45;;;3.58;;
1949;SDS011;975;48.760;9.152;2023-12-07T06:20:45;9.30;;;3.80;;
1949;SDS011;975;48.760;9.152;2023-12-07T06:23:34;10.23;;;3.58;;
1949;SDS011;975;48.760;9.152;2023-12-07T06:26:22;10.80;;;3.85;;
1949;SDS011;975;48.760;9.152;2023-12-07T06:29:10;7.72;;;3.67;;
1949;SDS011;975;48.760;9.152;2023-12-07T06:31:58;10.38;;;4.00;;
1949;SDS011;975;48.760;9.152;2023-12-07T06:34:49;10.52;;;3.80;;
1949;SDS011;975;48.760;9.152;2023-12-07T06:37:36;8.80;;;3.65;;
1949;SDS011;975;48.760;9.152;2023-12-07T06:40:26;10.82;;;3.80;;
1949;SDS011;975;48.760;9.152;2023-12-07T06:43:17;9.65;;;3.47;;
1949;SDS011;975;48.760;9.152;2023-12-07T06:48:53;7.38;;;3.30;;
1949;SDS011;975;48.760;9.152;2023-12-07T06:51:41;7.25;;;3.17;;
1949;SDS011;975;48.760;9.152;2023-12-07T06:54:31;6.88;;;3.40;;
1949;SDS011;975;48.760;9.152;2023-12-07T06:57:20;10.60;;;3.58;;
1949;SDS011;975;48.760;9.152;2023-12-07T07:00:08;10.27;;;3.63;;
1949;SDS011;975;48.760;9.152;2023-12-07T07:02:57;9.20;;;3.63;;
1949;SDS011;975;48.760;9.152;2023-12-07T07:05:45;7.30;;;3.28;;
1949;SDS011;975;48.760;9.152;2023-12-07T07:08:33;7.43;;;3.28;;
1949;SDS011;975;48.760;9.152;2023-12-07T07:11:21;9.57;;;3.90;;
1949;SDS011;975;48.760;9.152;2023-12-07T07:14:10;10.52;;;3.95;;
1949;SDS011;975;48.760;9.152;2023-12-07T07:16:58;7.28;;;3.50;;
1949;SDS011;975;48.760;9.152;2023-12-07T07:19:46;7.35;;;3.58;;
1949;SDS011;975;48.760;9.152;2023-12-07T07:22:33;9.93;;;3.88;;
1949;SDS011;975;48.760;9.152;2023-12-07T07:25:21;8.07;;;3.45;;
1949;SDS011;975;48.760;9.152;2023-12-07T07:28:09;9.00;;;3.80;;
1949;SDS011;975;48.760;9.152;2023-12-07T07:30:58;9.27;;;3.80;;
1949;SDS011;975;48.760;9.152;2023-12-07T07:33:46;10.27;;;3.88;;
1949;SDS011;975;48.760;9.152;2023-12-07T07:36:34;8.13;;;3.78;;
1949;SDS011;975;48.760;9.152;2023-12-07T07:39:22;8.32;;;4.13;;
1949;SDS011;975;48.760;9.152;2023-12-07T07:42:10;11.45;;;3.85;;
1949;SDS011;975;48.760;9.152;2023-12-07T07:44:59;10.30;;;3.67;;
1949;SDS011;975;48.760;9.152;2023-12-07T07:47:48;11.82;;;4.03;;
1949;SDS011;975;48.760;9.152;2023-12-07T07:50:37;8.90;;;3.65;;
1949;SDS011;975;48.760;9.152;2023-12-07T07:53:25;11.30;;;3.75;;
1949;SDS011;975;48.760;9.152;2023-12-07T07:56:12;8.38;;;3.63;;
1949;SDS011;975;48.760;9.152;2023-12-07T07:59:03;11.15;;;4.65;;
1949;SDS011;975;48.760;9.152;2023-12-07T08:01:51;9.75;;;3.75;;
1949;SDS011;975;48.760;9.152;2023-12-07T08:04:40;11.13;;;3.97;;
1949;SDS011;975;48.760;9.152;2023-12-07T08:07:28;9.88;;;4.25;;
1949;SDS011;975;48.760;9.152;2023-12-07T08:10:19;12.90;;;4.05;;
1949;SDS011;975;48.760;9.152;2023-12-07T08:13:07;10.18;;;4.28;;
1949;SDS011;975;48.760;9.152;2023-12-07T08:15:55;12.80;;;4.15;;
1949;SDS011;975;48.760;9.152;2023-12-07T08:18:42;9.10;;;5.10;;
1949;SDS011;975;48.760;9.152;2023-12-07T08:21:34;12.27;;;4.07;;
1949;SDS011;975;48.760;9.152;2023-12-07T08:24:22;10.52;;;3.92;;
1949;SDS011;975;48.760;9.152;2023-12-07T08:27:11;9.77;;;4.68;;
1949;SDS011;975;48.760;9.152;2023-12-07T08:32:49;8.25;;;4.60;;
1949;SDS011;975;48.760;9.152;2023-12-07T08:35:37;12.70;;;4.72;;
1949;SDS011;975;48.760;9.152;2023-12-07T08:38:26;12.80;;;5.55;;
1949;SDS011;975;48.760;9.152;2023-12-07T08:41:14;12.77;;;5.05;;
1949;SDS011;975;48.760;9.152;2023-12-07T08:44:02;10.82;;;5.07;;
1949;SDS011;975;48.760;9.152;2023-12-07T08:46:50;9.30;;;4.63;;
1949;SDS011;975;48.760;9.152;2023-12-07T08:49:37;9.55;;;4.35;;
1949;SDS011;975;48.760;9.152;2023-12-07T08:55:17;12.38;;;4.60;;
1949;SDS011;975;48.760;9.152;2023-12-07T08:58:05;11.23;;;5.25;;
1949;SDS011;975;48.760;9.152;2023-12-07T09:00:53;13.00;;;5.40;;
1949;SDS011;975;48.760;9.152;2023-12-07T09:03:42;11.10;;;4.50;;
1949;SDS011;975;48.760;9.152;2023-12-07T09:06:31;12.77;;;5.50;;
1949;SDS011;975;48.760;9.152;2023-12-07T09:09:19;12.70;;;6.05;;
1949;SDS011;975;48.760;9.152;2023-12-07T09:12:09;11.65;;;5.15;;
1949;SDS011;975;48.760;9.152;2023-12-07T09:14:57;14.13;;;5.45;;
1949;SDS011;975;48.760;9.152;2023-12-07T09:17:45;13.52;;;5.68;;
1949;SDS011;975;48.760;9.152;2023-12-07T09:20:34;15.52;;;5.95;;
1949;SDS011;975;48.760;9.152;2023-12-07T09:23:23;15.55;;;6.18;;
1949;SDS011;975;48.760;9.152;2023-12-07T09:26:10;13.38;;;5.88;;
1949;SDS011;975;48.760;9.152;2023-12-07T09:29:00;9.38;;;4.95;;
1949;SDS011;975;48.760;9.152;2023-12-07T09:31:48;11.35;;;4.43;;
1949;SDS011;975;48.760;9.152;2023-12-07T09:34:36;12.88;;;5.55;;
1949;SDS011;975;48.760;9.152;2023-12-07T09:37:24;9.93;;;4.65;;
1949;SDS011;975;48.760;9.152;2023-12-07T09:40:15;12.82;;;5.28;;
1949;SDS011;975;48.760;9.152;2023-12-07T09:43:04;10.48;;;5.28;;
1949;SDS011;975;48.760;9.152;2023-12-07T09:45:53;14.02;;;5.63;;
1949;SDS011;975;48.760;9.152;2023-12-07T09:48:48;11.07;;;4.97;;
1949;SDS011;975;48.760;9.152;2023-12-07T09:51:36;11.73;;;4.72;;
1949;SDS011;975;48.760;9.152;2023-12-07T09:54:24;10.32;;;4.22;;
1949;SDS011;975;48.760;9.152;2023-12-07T09:57:12;9.43;;;4.55;;
1949;SDS011;975;48.760;9.152;2023-12-07T10:00:00;9.52;;;4.43;;
1949;SDS011;975;48.760;9.152;2023-12-07T10:02:49;12.98;;;4.53;;
1949;SDS011;975;48.760;9.152;2023-12-07T10:05:52;8.63;;;4.05;;
1949;SDS011;975;48.760;9.152;2023-12-07T10:08:41;8.27;;;4.13;;
1949;SDS011;975;48.760;9.152;2023-12-07T10:11:32;11.40;;;4.20;;
1949;SDS011;975;48.760;9.152;2023-12-07T10:14:29;11.30;;;4.45;;
1949;SDS011;975;48.760;9.152;2023-12-07T10:17:17;11.52;;;5.22;;
1949;SDS011;975;48.760;9.152;2023-12-07T10:20:10;7.10;;;3.92;;
1949;SDS011;975;48.760;9.152;2023-12-07T10:23:02;12.63;;;3.95;;
1949;SDS011;975;48.760;9.152;2023-12-07T10:25:50;10.45;;;4.05;;
1949;SDS011;975;48.760;9.152;2023-12-07T10:28:38;5.63;;;2.97;;
1949;SDS011;975;48.760;9.152;2023-12-07T10:31:26;7.60;;;3.13;;
1949;SDS011;975;48.760;9.152;2023-12-07T10:34:20;7.13;;;3.03;;
1949;SDS011;975;48.760;9.152;2023-12-07T10:37:09;8.70;;;3.60;;
1949;SDS011;975;48.760;9.152;2023-12-07T10:40:00;9.88;;;3.42;;
1949;SDS011;975;48.760;9.152;2023-12-07T10:42:48;9.70;;;3.80;;
1949;SDS011;975;48.760;9.152;2023-12-07T10:45:38;10.32;;;4.00;;
1949;SDS011;975;48.760;9.152;2023-12-07T10:48:30;6.32;;;3.33;;
1949;SDS011;975;48.760;9.152;2023-12-07T10:51:21;12.95;;;3.72;;
1949;SDS011;975;48.760;9.152;2023-12-07T10:54:14;6.40;;;3.17;;
1949;SDS011;975;48.760;9.152;2023-12-07T10:57:03;9.52;;;3.83;;
1949;SDS011;975;48.760;9.152;2023-12-07T10:59:52;7.72;;;3.60;;
1949;SDS011;975;48.760;9.152;2023-12-07T11:02:42;8.88;;;3.83;;
1949;SDS011;975;48.760;9.152;2023-12-07T11:05:30;9.02;;;3.55;;
1949;SDS011;975;48.760;9.152;2023-12-07T11:08:20;7.47;;;2.88;;
1949;SDS011;975;48.760;9.152;2023-12-07T11:11:12;7.82;;;4.10;;
1949;SDS011;975;48.760;9.152;2023-12-07T11:14:03;7.00;;;2.90;;
1949;SDS011;975;48.760;9.152;2023-12-07T11:16:52;8.88;;;3.30;;
1949;SDS011;975;48.760;9.152;2023-12-07T11:19:43;6.50;;;2.95;;
1949;SDS011;975;48.760;9.152;2023-12-07T11:22:31;6.03;;;2.65;;
1949;SDS011;975;48.760;9.152;2023-12-07T11:25:19;4.90;;;2.72;;
1949;SDS011;975;48.760;9.152;2023-12-07T11:28:10;8.45;;;2.83;;
1949;SDS011;975;48.760;9.152;2023-12-07T11:31:01;6.85;;;2.28;;
1949;SDS011;975;48.760;9.152;2023-12-07T11:33:49;7.15;;;2.47;;
1949;SDS011;975;48.760;9.152;2023-12-07T11:36:37;5.53;;;1.98;;
1949;SDS011;975;48.760;9.152;2023-12-07T11:39:25;8.55;;;2.10;;
1949;SDS011;975;48.760;9.152;2023-12-07T11:42:14;2.67;;;1.52;;
1949;SDS011;975;48.760;9.152;2023-12-07T11:45:04;3.92;;;1.95;;
1949;SDS011;975;48.760;9.152;2023-12-07T11:48:05;3.58;;;1.60;;
1949;SDS011;975;48.760;9.152;2023-12-07T11:50:59;6.72;;;2.15;;
1949;SDS011;975;48.760;9.152;2023-12-07T11:53:47;4.82;;;1.92;;
1949;SDS011;975;48.760;9.152;2023-12-07T11:56:35;3.97;;;2.28;;
1949;SDS011;975;48.760;9.152;2023-12-07T11:59:23;3.92;;;2.45;;
1949;SDS011;975;48.760;9.152;2023-12-07T12:02:13;3.25;;;1.58;;
1949;SDS011;975;48.760;9.152;2023-12-07T12:05:01;4.32;;;2.00;;
1949;SDS011;975;48.760;9.152;2023-12-07T12:07:49;5.78;;;2.00;;
1949;SDS011;975;48.760;9.152;2023-12-07T12:10:37;2.75;;;1.63;;
1949;SDS011;975;48.760;9.152;2023-12-07T12:13:27;4.90;;;2.03;;
1949;SDS011;975;48.760;9.152;2023-12-07T12:16:17;2.85;;;1.95;;
1949;SDS011;975;48.760;9.152;2023-12-07T12:19:07;3.50;;;1.85;;
1949;SDS011;975;48.760;9.152;2023-12-07T12:21:55;5.20;;;1.98;;
1949;SDS011;975;48.760;9.152;2023-12-07T12:24:43;3.90;;;1.80;;
1949;SDS011;975;48.760;9.152;2023-12-07T12:27:37;4.50;;;1.90;;
1949;SDS011;975;48.760;9.152;2023-12-07T12:30:25;4.22;;;2.17;;
1949;SDS011;975;48.760;9.152;2023-12-07T12:33:12;4.07;;;2.63;;
1949;SDS011;975;48.760;9.152;2023-12-07T12:36:03;5.47;;;1.83;;
1949;SDS011;975;48.760;9.152;2023-12-07T12:38:52;6.30;;;2.47;;
1949;SDS011;975;48.760;9.152;2023-12-07T12:41:46;6.00;;;2.38;;
1949;SDS011;975;48.760;9.152;2023-12-07T12:44:35;8.25;;;2.67;;
1949;SDS011;975;48.760;9.152;2023-12-07T12:47:24;10.88;;;2.53;;
1949;SDS011;975;48.760;9.152;2023-12-07T12:50:12;5.50;;;2.78;;
1949;SDS011;975;48.760;9.152;2023-12-07T12:53:02;5.22;;;2.72;;
1949;SDS011;975;48.760;9.152;2023-12-07T12:55:49;4.05;;;2.30;;
1949;SDS011;975;48.760;9.152;2023-12-07T12:58:37;4.13;;;2.45;;
1949;SDS011;975;48.760;9.152;2023-12-07T13:01:28;6.72;;;2.80;;
1949;SDS011;975;48.760;9.152;2023-12-07T13:04:17;6.95;;;2.92;;
1949;SDS011;975;48.760;9.152;2023-12-07T13:07:05;4.95;;;2.72;;
1949;SDS011;975;48.760;9.152;2023-12-07T13:09:55;5.72;;;2.65;;
1949;SDS011;975;48.760;9.152;2023-12-07T13:12:42;4.60;;;2.53;;
1949;SDS011;975;48.760;9.152;2023-12-07T13:15:31;5.95;;;2.88;;
1949;SDS011;975;48.760;9.152;2023-12-07T13:18:18;6.35;;;2.65;;
1949;SDS011;975;48.760;9.152;2023-12-07T13:21:06;4.72;;;2.47;;
1949;SDS011;975;48.760;9.152;2023-12-07T13:23:55;6.30;;;2.35;;
1949;SDS011;975;48.760;9.152;2023-12-07T13:26:45;4.90;;;2.28;;
1949;SDS011;975;48.760;9.152;2023-12-07T13:29:33;4.05;;;2.45;;
1949;SDS011;975;48.760;9.152;2023-12-07T13:32:22;6.28;;;3.03;;
1949;SDS011;975;48.760;9.152;2023-12-07T13:35:10;7.18;;;2.50;;
1949;SDS011;975;48.760;9.152;2023-12-07T13:37:58;5.50;;;2.38;;
1949;SDS011;975;48.760;9.152;2023-12-07T13:40:49;4.15;;;2.40;;
1949;SDS011;975;48.760;9.152;2023-12-07T13:43:41;7.22;;;3.03;;
1949;SDS011;975;48.760;9.152;2023-12-07T13:46:29;6.55;;;2.88;;
1949;SDS011;975;48.760;9.152;2023-12-07T13:49:17;5.88;;;2.63;;
1949;SDS011;975;48.760;9.152;2023-12-07T13:52:05;6.90;;;3.40;;
1949;SDS011;975;48.760;9.152;2023-12-07T13:54:53;4.95;;;2.53;;
1949;SDS011;975;48.760;9.152;2023-12-07T13:57:40;6.97;;;3.05;;
1949;SDS011;975;48.760;9.152;2023-12-07T14:00:33;5.55;;;3.15;;
1949;SDS011;975;48.760;9.152;2023-12-07T14:03:21;7.25;;;2.38;;
1949;SDS011;975;48.760;9.152;2023-12-07T14:06:10;4.15;;;2.42;;
1949;SDS011;975;48.760;9.152;2023-12-07T14:08:59;5.82;;;2.40;;
1949;SDS011;975;48.760;9.152;2023-12-07T14:11:48;3.55;;;2.15;;
1949;SDS011;975;48.760;9.152;2023-12-07T14:14:36;4.22;;;1.83;;
1949;SDS011;975;48.760;9.152;2023-12-07T14:17:25;4.60;;;2.15;;
1949;SDS011;975;48.760;9.152;2023-12-07T14:20:13;3.42;;;1.88;;
1949;SDS011;975;48.760;9.152;2023-12-07T14:23:01;5.72;;;1.45;;
1949;SDS011;975;48.760;9.152;2023-12-07T14:25:51;6.22;;;1.70;;
1949;SDS011;975;48.760;9.152;2023-12-07T14:28:44;3.28;;;1.50;;
1949;SDS011;975;48.760;9.152;2023-12-07T14:31:34;3.60;;;1.70;;
1949;SDS011;975;48.760;9.152;2023-12-07T14:34:24;4.05;;;1.58;;
1949;SDS011;975;48.760;9.152;2023-12-07T14:37:12;1.92;;;1.38;;
1949;SDS011;975;48.760;9.152;2023-12-07T14:40:00;4.45;;;1.92;;
1949;SDS011;975;48.760;9.152;2023-12-07T14:42:50;3.33;;;1.17;;
1949;SDS011;975;48.760;9.152;2023-12-07T14:45:38;2.65;;;1.30;;
1949;SDS011;975;48.760;9.152;2023-12-07T14:48:26;3.10;;;1.33;;
1949;SDS011;975;48.760;9.152;2023-12-07T14:51:18;1.60;;;1.20;;
1949;SDS011;975;48.760;9.152;2023-12-07T14:54:16;3.20;;;1.27;;
1949;SDS011;975;48.760;9.152;2023-12-07T14:57:10;3.58;;;1.60;;
1949;SDS011;975;48.760;9.152;2023-12-07T14:59:58;3.20;;;1.90;;
1949;SDS011;975;48.760;9.152;2023-12-07T15:02:46;2.47;;;1.80;;
1949;SDS011;975;48.760;9.152;2023-12-07T15:05:33;3.92;;;1.92;;
1949;SDS011;975;48.760;9.152;2023-12-07T15:08:22;3.67;;;1.73;;
1949;SDS011;975;48.760;9.152;2023-12-07T15:11:10;5.78;;;1.92;;
1949;SDS011;975;48.760;9.152;2023-12-07T15:13:58;3.95;;;1.75;;
1949;SDS011;975;48.760;9.152;2023-12-07T15:16:46;16.92;;;6.22;;
1949;SDS011;975;48.760;9.152;2023-12-07T15:19:34;9.10;;;3.50;;
1949;SDS011;975;48.760;9.152;2023-12-07T15:22:22;5.35;;;2.13;;
1949;SDS011;975;48.760;9.152;2023-12-07T15:25:14;5.40;;;1.70;;
1949;SDS011;975;48.760;9.152;2023-12-07T15:28:05;3.13;;;1.65;;
1949;SDS011;975;48.760;9.152;2023-12-07T15:30:56;6.32;;;2.00;;
1949;SDS011;975;48.760;9.152;2023-12-07T15:33:44;1.98;;;1.50;;
1949;SDS011;975;48.760;9.152;2023-12-07T15:36:32;2.80;;;1.80;;
1949;SDS011;975;48.760;9.152;2023-12-07T15:39:20;4.78;;;1.95;;
1949;SDS011;975;48.760;9.152;2023-12-07T15:42:09;3.50;;;1.65;;
1949;SDS011;975;48.760;9.152;2023-12-07T15:44:57;9.65;;;3.70;;
1949;SDS011;975;48.760;9.152;2023-12-07T15:47:45;3.65;;;2.03;;
1949;SDS011;975;48.760;9.152;2023-12-07T15:50:33;6.28;;;2.72;;
1949;SDS011;975;48.760;9.152;2023-12-07T15:53:21;6.13;;;2.45;;
1949;SDS011;975;48.760;9.152;2023-12-07T15:56:08;5.50;;;3.22;;
1949;SDS011;975;48.760;9.152;2023-12-07T15:58:58;8.98;;;3.28;;
1949;SDS011;975;48.760;9.152;2023-12-07T16:01:46;6.55;;;2.53;;
1949;SDS011;975;48.760;9.152;2023-12-07T16:04:33;5.00;;;2.28;;
1949;SDS011;975;48.760;9.152;2023-12-07T16:07:21;3.88;;;1.98;;
1949;SDS011;975;48.760;9.152;2023-12-07T16:10:09;3.08;;;1.65;;
1949;SDS011;975;48.760;9.152;2023-12-07T16:12:57;4.72;;;1.92;;
1949;SDS011;975;48.760;9.152;2023-12-07T16:15:46;2.83;;;1.70;;
1949;SDS011;975;48.760;9.152;2023-12-07T16:18:34;3.80;;;1.77;;
1949;SDS011;975;48.760;9.152;2023-12-07T16:21:22;4.50;;;1.95;;
1949;SDS011;975;48.760;9.152;2023-12-07T16:24:10;4.63;;;2.20;;
1949;SDS011;975;48.760;9.152;2023-12-07T16:26:58;5.13;;;1.95;;
1949;SDS011;975;48.760;9.152;2023-12-07T16:29:50;7.10;;;2.17;;
1949;SDS011;975;48.760;9.152;2023-12-07T16:32:41;11.70;;;3.10;;
1949;SDS011;975;48.760;9.152;2023-12-07T16:38:20;12.07;;;4.15;;
1949;SDS011;975;48.760;9.152;2023-12-07T16:41:11;9.63;;;4.15;;
1949;SDS011;975;48.760;9.152;2023-12-07T16:43:59;13.50;;;4.85;;
1949;SDS011;975;48.760;9.152;2023-12-07T16:46:50;14.25;;;5.15;;
1949;SDS011;975;48.760;9.152;2023-12-07T16:49:39;15.52;;;4.25;;
1949;SDS011;975;48.760;9.152;2023-12-07T16:52:27;16.90;;;5.35;;
1949;SDS011;975;48.760;9.152;2023-12-07T16:55:15;18.77;;;5.30;;
1949;SDS011;975;48.760;9.152;2023-12-07T16:58:03;18.38;;;5.55;;
1949;SDS011;975;48.760;9.152;2023-12-07T17:00:51;22.88;;;7.78;;
1949;SDS011;975;48.760;9.152;2023-12-07T17:03:38;24.77;;;5.78;;
1949;SDS011;975;48.760;9.152;2023-12-07T17:06:29;15.90;;;6.18;;
1949;SDS011;975;48.760;9.152;2023-12-07T17:09:17;14.02;;;4.75;;
1949;SDS011;975;48.760;9.152;2023-12-07T17:12:05;12.80;;;4.55;;
1949;SDS011;975;48.760;9.152;2023-12-07T17:14:53;10.65;;;4.13;;
1949;SDS011;975;48.760;9.152;2023-12-07T17:17:41;14.32;;;4.50;;
1949;SDS011;975;48.760;9.152;2023-12-07T17:20:32;13.38;;;4.43;;
1949;SDS011;975;48.760;9.152;2023-12-07T17:23:21;10.13;;;3.45;;
1949;SDS011;975;48.760;9.152;2023-12-07T17:26:11;8.88;;;3.55;;
1949;SDS011;975;48.760;9.152;2023-12-07T17:28:59;8.65;;;3.15;;
1949;SDS011;975;48.760;9.152;2023-12-07T17:31:47;13.43;;;3.78;;
1949;SDS011;975;48.760;9.152;2023-12-07T17:34:35;9.77;;;3.08;;
1949;SDS011;975;48.760;9.152;2023-12-07T17:37:24;5.55;;;2.78;;
1949;SDS011;975;48.760;9.152;2023-12-07T17:40:15;9.65;;;3.30;;
1949;SDS011;975;48.760;9.152;2023-12-07T17:43:03;6.78;;;2.75;;
1949;SDS011;975;48.760;9.152;2023-12-07T17:45:50;9.93;;;3.45;;
1949;SDS011;975;48.760;9.152;2023-12-07T17:48:39;8.35;;;3.05;;
1949;SDS011;975;48.760;9.152;2023-12-07T17:51:30;11.00;;;4.07;;
1949;SDS011;975;48.760;9.152;2023-12-07T17:54:18;13.50;;;3.88;;
1949;SDS011;975;48.760;9.152;2023-12-07T17:57:10;9.30;;;4.13;;
1949;SDS011;975;48.760;9.152;2023-12-07T17:59:58;7.55;;;2.95;;
1949;SDS011;975;48.760;9.152;2023-12-07T18:02:48;7.82;;;2.78;;